createdAt,value
2022-11-05T00:00:33.285Z,84.82
2022-11-05T00:03:18.800Z,84.74
2022-11-05T00:06:07.524Z,84.44
2022-11-05T00:08:53.619Z,84.65
2022-11-05T00:11:42.464Z,84.82
2022-11-05T00:14:28.143Z,85.09
2022-11-05T00:16:57.601Z,85.22
2022-11-05T00:19:25.620Z,85.20
2022-11-05T00:22:10.884Z,84.88
2022-11-05T00:24:56.195Z,85.22
2022-11-05T00:27:24.128Z,84.60
2022-11-05T00:29:52.150Z,84.77
2022-11-05T00:32:21.585Z,84.74
2022-11-05T00:34:49.575Z,85.08
2022-11-05T00:37:17.671Z,84.41
2022-11-05T00:39:45.729Z,85.14
2022-11-05T00:42:30.979Z,84.73
2022-11-05T00:45:04.810Z,85.19
2022-11-05T00:47:52.380Z,85.10
2022-11-05T00:50:22.147Z,84.89
2022-11-05T00:52:59.825Z,85.36
2022-11-05T00:55:34.734Z,85.43
2022-11-05T00:58:04.724Z,85.19
2022-11-05T01:00:34.715Z,85.20
2022-11-05T01:03:06.160Z,85.36
2022-11-05T01:05:35.400Z,85.04
2022-11-05T01:08:03.353Z,85.55
2022-11-05T01:10:31.488Z,85.65
2022-11-05T01:12:59.866Z,85.25
2022-11-05T01:15:28.096Z,86.00
2022-11-05T01:17:56.130Z,85.64
2022-11-05T01:20:25.513Z,86.00
2022-11-05T01:22:53.524Z,85.80
2022-11-05T01:25:21.574Z,85.71
2022-11-05T01:27:49.933Z,86.42
2022-11-05T01:30:18.288Z,86.15
2022-11-05T01:32:46.284Z,86.36
2022-11-05T01:35:16.326Z,85.92
2022-11-05T01:37:46.665Z,86.42
2022-11-05T01:40:16.956Z,86.05
2022-11-05T01:42:45.415Z,85.95
2022-11-05T01:45:19.305Z,86.06
2022-11-05T01:47:56.461Z,85.99
2022-11-05T01:50:30.849Z,86.03
2022-11-05T01:53:06.952Z,86.23
2022-11-05T01:55:39.361Z,86.36
2022-11-05T01:58:09.051Z,86.53
2022-11-05T02:00:37.890Z,86.00
2022-11-05T02:03:06.198Z,86.70
2022-11-05T02:05:35.282Z,87.00
2022-11-05T02:08:05.136Z,86.57
2022-11-05T02:10:33.723Z,86.44
2022-11-05T02:13:03.639Z,86.91
2022-11-05T02:15:44.337Z,86.39
2022-11-05T02:18:21.810Z,86.44
2022-11-05T02:21:00.102Z,87.24
2022-11-05T02:24:03.904Z,87.12
2022-11-05T02:27:13.869Z,87.34
2022-11-05T02:30:09.373Z,87.39
2022-11-05T02:32:51.635Z,87.52
2022-11-05T02:35:33.175Z,87.36
2022-11-05T02:38:09.558Z,88.21
2022-11-05T02:40:47.735Z,88.25
2022-11-05T02:43:26.332Z,87.92
2022-11-05T02:46:04.379Z,88.24
2022-11-05T02:48:46.111Z,88.06
2022-11-05T02:51:20.658Z,87.84
2022-11-05T02:53:55.162Z,87.77
2022-11-05T02:56:28.189Z,88.19
2022-11-05T02:58:56.120Z,87.83
2022-11-05T03:01:24.197Z,87.87
2022-11-05T03:03:56.977Z,87.74
2022-11-05T03:06:41.055Z,88.38
2022-11-05T03:09:38.733Z,87.90
2022-11-05T03:12:21.487Z,87.42
2022-11-05T03:14:57.918Z,87.69
2022-11-05T03:17:34.941Z,88.46
2022-11-05T03:20:15.237Z,88.30
2022-11-05T03:22:48.796Z,88.42
2022-11-05T03:25:21.721Z,88.72
2022-11-05T03:27:54.148Z,88.68
2022-11-05T03:30:22.400Z,89.51
2022-11-05T03:33:00.252Z,88.99
2022-11-05T03:35:35.712Z,89.63
2022-11-05T03:38:07.882Z,88.69
2022-11-05T03:40:38.089Z,89.10
2022-11-05T03:43:09.937Z,88.85
2022-11-05T03:45:43.054Z,89.54
2022-11-05T03:48:13.980Z,89.03
2022-11-05T03:50:50.595Z,89.24
2022-11-05T03:53:22.621Z,89.89
2022-11-05T03:55:56.919Z,88.81
2022-11-05T03:58:26.107Z,89.30
2022-11-05T04:00:54.479Z,89.03
2022-11-05T04:03:22.429Z,89.18
2022-11-05T04:06:06.248Z,88.58
2022-11-05T04:08:51.683Z,88.66
2022-11-05T04:11:37.192Z,88.72
2022-11-05T04:14:05.139Z,88.97
2022-11-05T04:16:50.566Z,88.53
2022-11-05T04:19:38.446Z,89.39
2022-11-05T04:22:24.217Z,89.11
2022-11-05T04:24:52.144Z,88.51
2022-11-05T04:27:20.078Z,89.12
2022-11-05T04:30:05.517Z,88.81
2022-11-05T04:32:33.628Z,89.00
2022-11-05T04:35:01.575Z,88.84
2022-11-05T04:37:31.016Z,89.06
2022-11-05T04:39:58.963Z,89.08
2022-11-05T04:42:26.876Z,89.08
2022-11-05T04:44:54.827Z,88.17
2022-11-05T04:47:22.827Z,88.38
2022-11-05T04:49:51.142Z,88.00
2022-11-05T04:52:18.998Z,88.79
2022-11-05T04:54:48.375Z,88.88
2022-11-05T04:57:16.317Z,88.59
2022-11-05T04:59:44.284Z,88.43
2022-11-05T05:02:12.220Z,88.28
2022-11-05T05:04:40.140Z,88.83
2022-11-05T05:07:07.986Z,88.93
2022-11-05T05:09:35.898Z,89.07
2022-11-05T05:12:05.370Z,89.18
2022-11-05T05:14:33.476Z,89.41
2022-11-05T05:17:01.533Z,88.65
2022-11-05T05:19:30.079Z,89.54
2022-11-05T05:21:57.009Z,89.09
2022-11-05T05:24:25.298Z,90.05
2022-11-05T05:26:53.180Z,89.77
2022-11-05T05:29:22.486Z,89.99
2022-11-05T05:31:50.360Z,89.86
2022-11-05T05:34:18.259Z,90.23
2022-11-05T05:36:46.141Z,89.53
2022-11-05T05:39:14.586Z,89.88
2022-11-05T05:41:43.536Z,90.09
2022-11-05T05:44:11.466Z,90.82
2022-11-05T05:46:40.846Z,90.52
2022-11-05T05:49:12.714Z,90.39
2022-11-05T05:51:41.203Z,89.89
2022-11-05T05:54:09.423Z,90.77
2022-11-05T05:56:37.330Z,91.63
2022-11-05T05:59:06.977Z,90.94
2022-11-05T06:01:36.062Z,91.12
2022-11-05T06:04:06.001Z,91.84
2022-11-05T06:06:34.216Z,91.59
2022-11-05T06:09:02.213Z,91.51
2022-11-05T06:11:30.101Z,92.61
2022-11-05T06:13:58.056Z,92.05
2022-11-05T06:16:26.023Z,93.06
2022-11-05T06:18:53.940Z,91.99
2022-11-05T06:21:23.441Z,92.72
2022-11-05T06:23:51.336Z,92.20
2022-11-05T06:26:19.827Z,92.45
2022-11-05T06:28:48.025Z,92.21
2022-11-05T06:31:16.202Z,92.10
2022-11-05T06:33:44.071Z,92.30
2022-11-05T06:36:16.443Z,92.33
2022-11-05T06:38:46.011Z,92.80
2022-11-05T06:41:14.141Z,92.58
2022-11-05T06:43:42.545Z,92.10
2022-11-05T06:46:12.073Z,92.70
2022-11-05T06:48:41.144Z,92.38
2022-11-05T06:51:09.766Z,92.91
2022-11-05T06:53:37.979Z,92.54
2022-11-05T06:56:08.952Z,93.42
2022-11-05T06:58:36.950Z,93.08
2022-11-05T07:01:08.123Z,92.49
2022-11-05T07:03:36.403Z,93.53
2022-11-05T07:06:05.678Z,93.12
2022-11-05T07:08:34.592Z,92.88
2022-11-05T07:11:02.815Z,93.22
2022-11-05T07:13:32.085Z,93.23
2022-11-05T07:16:00.220Z,93.25
2022-11-05T07:18:28.170Z,94.37
2022-11-05T07:20:56.170Z,94.29
2022-11-05T07:23:24.055Z,94.73
2022-11-05T07:25:52.000Z,93.91
2022-11-05T07:28:20.201Z,94.64
2022-11-05T07:30:49.704Z,93.45
2022-11-05T07:33:17.817Z,94.88
2022-11-05T07:35:45.915Z,94.95
2022-11-05T07:38:14.063Z,94.65
2022-11-05T07:40:42.200Z,94.41
2022-11-05T07:43:10.588Z,95.14
2022-11-05T07:45:38.846Z,95.14
2022-11-05T07:48:08.615Z,95.04
2022-11-05T07:50:37.825Z,95.10
2022-11-05T07:53:07.351Z,95.37
2022-11-05T07:55:35.490Z,95.97
2022-11-05T07:58:03.785Z,95.94
2022-11-05T08:00:32.204Z,96.55
2022-11-05T08:03:07.358Z,96.19
2022-11-05T08:05:39.586Z,97.08
2022-11-05T08:08:09.129Z,97.04
2022-11-05T08:10:37.760Z,97.66
2022-11-05T08:13:06.801Z,96.44
2022-11-05T08:15:35.716Z,97.05
2022-11-05T08:18:05.640Z,97.16
2022-11-05T08:20:34.146Z,96.82
2022-11-05T08:23:03.994Z,97.04
2022-11-05T08:25:32.841Z,97.40
2022-11-05T08:28:02.899Z,97.67
2022-11-05T08:30:31.904Z,97.70
2022-11-05T08:33:01.445Z,97.50
2022-11-05T08:35:30.558Z,97.54
2022-11-05T08:38:00.687Z,97.92
2022-11-05T08:40:31.695Z,97.99
2022-11-05T08:43:00.558Z,97.64
2022-11-05T08:45:29.106Z,97.39
2022-11-05T08:48:00.643Z,97.21
2022-11-05T08:50:28.853Z,97.47
2022-11-05T08:52:56.873Z,97.84
2022-11-05T08:55:25.149Z,97.70
2022-11-05T08:57:58.189Z,97.81
2022-11-05T09:00:26.440Z,97.86
2022-11-05T09:02:54.628Z,98.34
2022-11-05T09:05:22.922Z,98.17
2022-11-05T09:07:53.143Z,98.65
2022-11-05T09:10:24.996Z,98.15
2022-11-05T09:12:52.985Z,97.87
2022-11-05T09:15:23.325Z,98.36
2022-11-05T09:17:51.557Z,98.97
2022-11-05T09:20:19.975Z,98.24
2022-11-05T09:22:47.927Z,97.87
2022-11-05T09:25:16.471Z,98.48
2022-11-05T09:27:44.489Z,98.61
2022-11-05T09:30:14.603Z,98.56
2022-11-05T09:32:44.072Z,98.30
2022-11-05T09:35:11.999Z,98.08
2022-11-05T09:37:40.412Z,98.44
2022-11-05T09:40:09.038Z,98.34
2022-11-05T09:42:42.366Z,97.82
2022-11-05T09:45:16.390Z,97.43
2022-11-05T09:47:50.129Z,97.94
2022-11-05T09:50:21.754Z,97.42
2022-11-05T09:52:49.975Z,97.26
2022-11-05T09:55:27.913Z,97.66
2022-11-05T09:58:00.140Z,97.13
2022-11-05T10:00:28.820Z,97.02
2022-11-05T10:03:01.195Z,96.54
2022-11-05T10:05:29.949Z,96.19
2022-11-05T10:08:03.009Z,96.10
2022-11-05T10:10:40.831Z,95.79
2022-11-05T10:13:17.362Z,95.07
2022-11-05T10:15:54.025Z,95.24
2022-11-05T10:18:28.479Z,95.50
2022-11-05T10:20:57.148Z,94.38
2022-11-05T10:23:27.869Z,94.67
2022-11-05T10:25:58.446Z,94.37
2022-11-05T10:28:29.097Z,94.49
2022-11-05T10:31:00.700Z,94.41
2022-11-05T10:33:34.744Z,92.77
2022-11-05T10:36:06.330Z,92.20
2022-11-05T10:38:34.818Z,92.24
2022-11-05T10:41:21.500Z,89.79
2022-11-05T10:43:52.534Z,90.84
2022-11-05T10:46:30.480Z,89.86
2022-11-05T10:49:20.507Z,89.67
2022-11-05T10:51:55.268Z,90.61
2022-11-05T10:54:25.457Z,90.28
2022-11-05T10:56:53.453Z,90.31
2022-11-05T10:59:23.535Z,89.44
2022-11-05T11:01:58.254Z,89.40
2022-11-05T11:04:34.906Z,89.06
2022-11-05T11:07:05.918Z,89.05
2022-11-05T11:09:37.664Z,87.96
2022-11-05T11:12:08.923Z,87.66
2022-11-05T11:14:36.908Z,88.46
2022-11-05T11:17:19.080Z,88.03
2022-11-05T11:19:48.418Z,88.75
2022-11-05T11:22:21.947Z,88.50
2022-11-05T11:24:53.850Z,88.45
2022-11-05T11:27:26.001Z,88.27
2022-11-05T11:29:58.969Z,87.81
2022-11-05T11:32:33.635Z,87.30
2022-11-05T11:35:03.864Z,86.90
2022-11-05T11:37:35.041Z,85.88
2022-11-05T11:40:10.004Z,85.47
2022-11-05T11:42:42.419Z,85.71
2022-11-05T11:45:18.623Z,84.88
2022-11-05T11:47:50.041Z,85.58
2022-11-05T11:50:42.302Z,84.42
2022-11-05T11:53:31.831Z,83.75
2022-11-05T11:56:06.172Z,84.59
2022-11-05T11:58:40.928Z,83.48
2022-11-05T12:01:43.655Z,83.16
2022-11-05T12:04:23.957Z,83.98
2022-11-05T12:07:02.959Z,83.38
2022-11-05T12:09:45.429Z,82.95
2022-11-05T12:12:15.753Z,83.91
2022-11-05T12:14:52.578Z,83.64
2022-11-05T12:17:31.593Z,83.54
2022-11-05T12:20:24.904Z,83.29
2022-11-05T12:23:14.560Z,82.27
2022-11-05T12:25:49.770Z,82.08
2022-11-05T12:28:51.859Z,82.61
2022-11-05T12:31:36.129Z,81.65
2022-11-05T12:34:24.004Z,80.44
2022-11-05T12:37:12.751Z,80.64
2022-11-05T12:40:04.486Z,80.44
2022-11-05T12:42:53.050Z,80.09
2022-11-05T12:45:31.891Z,79.73
2022-11-05T12:48:12.994Z,79.40
2022-11-05T12:50:45.380Z,80.50
2022-11-05T12:53:30.433Z,79.62
2022-11-05T12:56:07.922Z,80.43
2022-11-05T12:58:40.740Z,79.01
2022-11-05T13:01:12.909Z,79.17
2022-11-05T13:03:45.588Z,78.42
2022-11-05T13:06:15.321Z,78.55
2022-11-05T13:08:50.063Z,78.92
2022-11-05T13:11:24.298Z,77.54
2022-11-05T13:14:02.751Z,77.05
2022-11-05T13:16:35.020Z,77.17
2022-11-05T13:19:13.989Z,77.57
2022-11-05T13:21:44.173Z,78.42
2022-11-05T13:24:18.767Z,77.73
2022-11-05T13:26:54.311Z,75.62
2022-11-05T13:29:27.253Z,76.72
2022-11-05T13:32:01.445Z,76.88
2022-11-05T13:34:34.848Z,77.69
2022-11-05T13:37:25.865Z,77.05
2022-11-05T13:39:57.388Z,77.09
2022-11-05T13:42:54.380Z,75.80
2022-11-05T13:45:39.232Z,74.34
2022-11-05T13:48:28.400Z,75.91
2022-11-05T13:51:36.171Z,76.39
2022-11-05T13:54:37.916Z,74.34
2022-11-05T13:57:24.080Z,74.59
2022-11-05T14:00:12.736Z,75.17
2022-11-05T14:02:44.676Z,76.42
2022-11-05T14:05:29.215Z,76.20
2022-11-05T14:08:00.406Z,76.47
2022-11-05T14:10:37.450Z,75.97
2022-11-05T14:13:19.042Z,74.09
2022-11-05T14:15:58.744Z,76.04
2022-11-05T14:18:38.986Z,76.19
2022-11-05T14:21:28.035Z,76.52
2022-11-05T14:23:58.857Z,76.12
2022-11-05T14:26:28.603Z,76.71
2022-11-05T14:29:38.532Z,75.50
2022-11-05T14:32:26.355Z,76.11
2022-11-05T14:35:04.056Z,74.54
2022-11-05T14:37:36.993Z,75.96
2022-11-05T14:40:33.982Z,75.55
2022-11-05T14:43:04.497Z,76.13
2022-11-05T14:45:36.349Z,76.10
2022-11-05T14:48:06.981Z,76.28
2022-11-05T14:50:38.801Z,75.44
2022-11-05T14:53:25.616Z,75.62
2022-11-05T14:56:02.137Z,75.68
2022-11-05T14:58:36.581Z,74.62
2022-11-05T15:01:07.656Z,75.83
2022-11-05T15:04:12.231Z,75.14
2022-11-05T15:06:40.746Z,75.72
2022-11-05T15:09:24.682Z,75.24
2022-11-05T15:12:09.080Z,75.89
2022-11-05T15:14:42.892Z,75.43
2022-11-05T15:17:18.877Z,75.83
2022-11-05T15:19:48.130Z,76.01
2022-11-05T15:22:30.914Z,75.59
2022-11-05T15:24:59.838Z,76.42
2022-11-05T15:27:45.281Z,75.35
2022-11-05T15:30:18.904Z,75.78
2022-11-05T15:32:46.847Z,76.13
2022-11-05T15:35:27.206Z,75.43
2022-11-05T15:38:01.768Z,75.52
2022-11-05T15:40:32.543Z,75.99
2022-11-05T15:43:16.438Z,75.47
2022-11-05T15:45:44.355Z,76.15
2022-11-05T15:48:16.861Z,76.12
2022-11-05T15:50:44.877Z,76.43
2022-11-05T15:53:47.458Z,76.44
2022-11-05T15:56:22.967Z,76.20
2022-11-05T15:58:55.770Z,75.95
2022-11-05T16:01:27.940Z,76.71
2022-11-05T16:03:58.852Z,76.11
2022-11-05T16:06:35.559Z,76.90
2022-11-05T16:09:04.083Z,76.73
2022-11-05T16:11:32.591Z,76.80
2022-11-05T16:14:18.314Z,75.97
2022-11-05T16:16:47.399Z,76.70
2022-11-05T16:19:40.908Z,76.46
2022-11-05T16:22:09.830Z,77.09
2022-11-05T16:24:37.852Z,77.13
2022-11-05T16:27:06.412Z,77.18
2022-11-05T16:29:40.608Z,76.95
2022-11-05T16:32:16.910Z,76.33
2022-11-05T16:34:49.389Z,76.55
2022-11-05T16:37:20.458Z,76.75
2022-11-05T16:39:48.548Z,76.36
2022-11-05T16:42:40.560Z,76.58
2022-11-05T16:45:13.750Z,76.86
2022-11-05T16:47:42.587Z,76.76
2022-11-05T16:50:23.656Z,76.56
2022-11-05T16:52:51.742Z,76.49
2022-11-05T16:55:20.425Z,76.64
2022-11-05T16:57:52.412Z,76.66
2022-11-05T17:00:23.127Z,76.52
2022-11-05T17:02:51.633Z,76.83
2022-11-05T17:05:23.284Z,76.71
2022-11-05T17:07:51.827Z,76.78
2022-11-05T17:10:20.786Z,76.68
2022-11-05T17:12:48.947Z,77.11
2022-11-05T17:15:24.661Z,76.74
2022-11-05T17:17:53.755Z,77.24
2022-11-05T17:20:28.511Z,77.01
2022-11-05T17:22:57.804Z,77.39
2022-11-05T17:25:26.411Z,77.30
2022-11-05T17:27:54.791Z,77.59
2022-11-05T17:30:25.502Z,77.59
2022-11-05T17:32:53.776Z,77.97
2022-11-05T17:35:22.106Z,77.79
2022-11-05T17:37:50.334Z,78.03
2022-11-05T17:40:20.184Z,78.00
2022-11-05T17:42:48.372Z,78.06
2022-11-05T17:45:17.136Z,78.07
2022-11-05T17:47:46.860Z,78.24
2022-11-05T17:50:16.274Z,78.38
2022-11-05T17:52:44.835Z,78.13
2022-11-05T17:55:17.707Z,77.55
2022-11-05T17:57:47.396Z,78.44
2022-11-05T18:00:17.001Z,78.31
2022-11-05T18:02:48.553Z,78.58
2022-11-05T18:05:17.036Z,78.80
2022-11-05T18:07:45.294Z,78.59
2022-11-05T18:10:13.506Z,78.75
2022-11-05T18:12:42.019Z,79.15
2022-11-05T18:15:10.798Z,79.15
2022-11-05T18:17:38.724Z,79.01
2022-11-05T18:20:17.365Z,79.01
2022-11-05T18:22:47.206Z,79.11
2022-11-05T18:25:15.226Z,79.43
2022-11-05T18:27:43.398Z,79.61
2022-11-05T18:30:15.383Z,79.61
2022-11-05T18:32:44.430Z,79.76
2022-11-05T18:35:14.690Z,79.82
2022-11-05T18:37:43.458Z,79.64
2022-11-05T18:40:12.113Z,79.91
2022-11-05T18:42:40.440Z,80.16
2022-11-05T18:45:09.875Z,80.19
2022-11-05T18:47:38.061Z,80.10
2022-11-05T18:50:07.823Z,80.15
2022-11-05T18:52:37.273Z,80.24
2022-11-05T18:55:05.932Z,80.24
2022-11-05T18:57:34.989Z,80.08
2022-11-05T19:00:03.119Z,79.95
2022-11-05T19:02:31.187Z,79.87
2022-11-05T19:05:28.411Z,80.05
2022-11-05T19:07:48.935Z,80.22
2022-11-05T19:10:17.348Z,80.17
2022-11-05T19:12:45.415Z,80.43
2022-11-05T19:15:13.483Z,80.10
2022-11-05T19:17:41.638Z,80.32
2022-11-05T19:20:10.334Z,79.99
2022-11-05T19:22:38.456Z,80.44
2022-11-05T19:25:08.973Z,80.23
2022-11-05T19:27:37.582Z,81.17
2022-11-05T19:30:06.610Z,80.60
2022-11-05T19:32:34.839Z,80.96
2022-11-05T19:35:02.708Z,81.33
2022-11-05T19:37:30.638Z,81.92
2022-11-05T19:39:58.561Z,81.94
2022-11-05T19:42:28.328Z,81.64
2022-11-05T19:44:56.279Z,81.82
2022-11-05T19:47:24.265Z,81.85
2022-11-05T19:49:52.255Z,81.66
2022-11-05T19:52:20.248Z,82.74
2022-11-05T19:54:48.199Z,81.79
2022-11-05T19:57:16.261Z,82.48
2022-11-05T19:59:45.580Z,82.79
2022-11-05T20:02:16.239Z,82.49
2022-11-05T20:04:45.203Z,82.77
2022-11-05T20:07:13.268Z,82.58
2022-11-05T20:09:41.490Z,83.10
2022-11-05T20:12:09.496Z,82.93
2022-11-05T20:14:37.633Z,83.01
2022-11-05T20:17:06.970Z,83.12
2022-11-05T20:19:35.430Z,83.21
2022-11-05T20:22:03.470Z,83.17
2022-11-05T20:24:31.540Z,83.07
2022-11-05T20:26:59.488Z,82.98
2022-11-05T20:29:34.750Z,83.29
2022-11-05T20:32:03.904Z,82.97
2022-11-05T20:34:35.066Z,82.94
2022-11-05T20:37:03.286Z,82.73
2022-11-05T20:39:31.453Z,83.38
2022-11-05T20:42:00.686Z,83.26
2022-11-05T20:44:29.101Z,83.56
2022-11-05T20:46:57.004Z,82.83
2022-11-05T20:49:25.806Z,83.20
2022-11-05T20:51:55.556Z,83.00
2022-11-05T20:54:23.588Z,82.91
2022-11-05T20:56:51.617Z,82.99
2022-11-05T20:59:19.488Z,83.09
2022-11-05T21:01:47.518Z,83.09
2022-11-05T21:04:15.502Z,83.14
2022-11-05T21:06:43.436Z,83.28
2022-11-05T21:09:13.257Z,83.13
2022-11-05T21:11:58.653Z,83.36
2022-11-05T21:14:26.752Z,83.66
2022-11-05T21:16:54.632Z,83.10
2022-11-05T21:19:24.151Z,83.25
2022-11-05T21:21:52.377Z,83.24
2022-11-05T21:24:22.352Z,83.17
2022-11-05T21:26:51.144Z,82.92
2022-11-05T21:29:19.668Z,82.80
2022-11-05T21:31:47.701Z,83.16
2022-11-05T21:34:15.785Z,83.03
2022-11-05T21:36:43.665Z,82.56
2022-11-05T21:39:13.609Z,82.93
2022-11-05T21:41:43.742Z,82.98
2022-11-05T21:44:12.379Z,82.86
2022-11-05T21:46:40.299Z,82.63
2022-11-05T21:49:09.402Z,82.48
2022-11-05T21:51:54.856Z,82.19
2022-11-05T21:54:40.264Z,82.71
2022-11-05T21:57:32.962Z,82.35
2022-11-05T22:00:01.783Z,82.36
2022-11-05T22:02:30.665Z,82.21
2022-11-05T22:05:00.278Z,82.36
2022-11-05T22:07:30.048Z,82.59
2022-11-05T22:09:58.044Z,82.56
2022-11-05T22:12:27.562Z,83.10
2022-11-05T22:14:56.634Z,82.70
2022-11-05T22:17:24.895Z,82.91
2022-11-05T22:19:52.935Z,82.91
2022-11-05T22:22:20.905Z,82.79
2022-11-05T22:24:48.776Z,82.68
2022-11-05T22:27:18.917Z,82.89
2022-11-05T22:29:48.375Z,82.85
2022-11-05T22:32:16.923Z,83.14
2022-11-05T22:34:44.813Z,82.91
2022-11-05T22:37:13.845Z,83.16
2022-11-05T22:39:41.916Z,83.05
2022-11-05T22:42:10.096Z,83.07
2022-11-05T22:44:38.657Z,83.15
2022-11-05T22:47:08.139Z,83.18
2022-11-05T22:49:36.275Z,83.07
2022-11-05T22:52:04.500Z,83.19
2022-11-05T22:54:37.933Z,82.88
2022-11-05T22:57:07.097Z,83.26
2022-11-05T22:59:35.013Z,83.17
2022-11-05T23:02:09.150Z,83.17
2022-11-05T23:04:39.530Z,83.33
2022-11-05T23:07:27.842Z,83.24
2022-11-05T23:10:15.855Z,82.87
2022-11-05T23:12:44.725Z,83.13
2022-11-05T23:15:34.526Z,82.79
2022-11-05T23:18:19.897Z,83.37
2022-11-05T23:21:06.719Z,83.52
2022-11-05T23:23:52.095Z,83.54
2022-11-05T23:26:37.541Z,83.54
2022-11-05T23:29:05.616Z,83.42
2022-11-05T23:31:50.765Z,83.47
2022-11-05T23:34:18.781Z,83.86
2022-11-05T23:37:05.657Z,83.41
2022-11-05T23:39:38.222Z,83.48
2022-11-05T23:42:26.657Z,83.60
2022-11-05T23:45:14.580Z,83.69
2022-11-05T23:48:00.192Z,84.01
2022-11-05T23:50:28.482Z,83.82
2022-11-05T23:52:58.297Z,84.18
2022-11-05T23:55:26.967Z,84.12
2022-11-05T23:57:55.173Z,83.96
